Time;durP1;ratioP1;P1;durP2;ratioP2;P2;SDS_P1;SDS_P2;PMS_P1;PMS_P2;Temp;Humidity;BMP_temperature;BMP_pressure;BME280_temperature;BME280_humidity;BME280_pressure;Samples;Min_cycle;Max_cycle;Signal;HPM_P1;HPM_P2
2022/03/31 03:09:45;;;;;;;20.97;13.83;;;8.60;99.90;;;;;;6104929;23;20452;-88
2022/03/31 03:12:15;;;;;;;21.73;16.60;;;8.40;99.90;;;;;;6104621;23;20928;-84
2022/03/31 03:14:49;;;;;;;20.90;14.83;;;8.40;99.90;;;;;;6105110;23;20419;-88
2022/03/31 03:17:18;;;;;;;19.40;13.60;;;8.40;99.90;;;;;;6104487;23;20397;-86
2022/03/31 03:19:45;;;;;;;22.57;15.10;;;8.40;99.90;;;;;;6103745;23;20428;-86
2022/03/31 03:22:12;;;;;;;19.95;11.63;;;8.40;99.90;;;;;;6103091;23;20420;-85
2022/03/31 03:24:39;;;;;;;20.58;14.35;;;8.40;99.90;;;;;;6102955;23;20176;-85
2022/03/31 03:27:08;;;;;;;21.60;14.45;;;8.30;99.90;;;;;;6113652;23;20189;-87
2022/03/31 03:29:35;;;;;;;23.38;16.58;;;8.30;99.90;;;;;;6108053;23;20196;-85
2022/03/31 03:32:02;;;;;;;21.60;16.20;;;8.10;99.90;;;;;;6110851;23;20199;-88
2022/03/31 03:34:30;;;;;;;21.33;16.35;;;8.10;99.90;;;;;;6107133;23;20624;-87
2022/03/31 03:36:58;;;;;;;23.35;14.50;;;8.00;99.90;;;;;;6107855;23;20184;-86
2022/03/31 03:39:25;;;;;;;23.30;15.15;;;8.20;99.90;;;;;;6116608;23;20189;-86
2022/03/31 03:41:52;;;;;;;25.27;14.65;;;8.30;99.90;;;;;;6118100;23;20204;-87
2022/03/31 03:44:25;;;;;;;23.50;16.20;;;8.10;99.90;;;;;;6104711;23;20624;-86
2022/03/31 03:46:53;;;;;;;21.17;16.50;;;8.20;99.90;;;;;;6115677;23;20409;-86
2022/03/31 03:49:21;;;;;;;21.60;15.23;;;8.10;99.90;;;;;;6105205;23;20427;-86
2022/03/31 03:51:48;;;;;;;19.95;13.45;;;8.20;99.90;;;;;;6104155;23;20413;-87
2022/03/31 03:54:21;;;;;;;21.77;15.30;;;8.30;99.90;;;;;;6105917;23;20208;-86
2022/03/31 03:56:48;;;;;;;20.50;14.90;;;8.20;99.90;;;;;;6105476;23;20424;-85
2022/03/31 03:59:15;;;;;;;18.63;13.70;;;8.10;99.90;;;;;;6105884;23;20425;-88
2022/03/31 04:01:43;;;;;;;24.33;17.30;;;8.10;99.90;;;;;;6105128;23;20444;-86
2022/03/31 04:04:12;;;;;;;21.35;13.57;;;8.00;99.90;;;;;;6109666;23;20181;-86
2022/03/31 04:06:39;;;;;;;21.38;16.20;;;7.90;99.90;;;;;;6108703;23;20180;-86
2022/03/31 04:09:09;;;;;;;21.15;15.32;;;8.00;99.90;;;;;;6106148;23;20196;-87
2022/03/31 04:11:36;;;;;;;22.37;16.17;;;8.00;99.90;;;;;;6108540;23;20220;-87
2022/03/31 04:14:03;;;;;;;23.27;16.33;;;8.10;99.90;;;;;;6106287;23;20424;-87
2022/03/31 04:16:33;;;;;;;21.40;14.87;;;8.10;99.90;;;;;;6109074;23;20416;-87
2022/03/31 04:19:07;;;;;;;17.73;13.33;;;8.10;99.90;;;;;;6105432;23;20812;-88
2022/03/31 04:21:35;;;;;;;22.30;16.33;;;8.00;99.90;;;;;;6105039;23;20491;-88
2022/03/31 04:24:02;;;;;;;23.00;16.48;;;8.00;99.90;;;;;;6105214;23;20819;-87
2022/03/31 04:26:29;;;;;;;20.80;15.60;;;7.80;99.90;;;;;;6104157;23;20177;-87
2022/03/31 04:28:57;;;;;;;21.38;14.65;;;7.90;99.90;;;;;;6104202;23;20192;-87
2022/03/31 04:31:24;;;;;;;21.93;15.87;;;7.90;99.90;;;;;;6103595;23;20244;-87
2022/03/31 04:33:51;;;;;;;21.37;13.40;;;7.80;99.90;;;;;;6105169;23;20413;-87
2022/03/31 04:36:19;;;;;;;22.92;16.05;;;7.80;99.90;;;;;;6108950;23;20405;-86
2022/03/31 04:38:47;;;;;;;25.70;16.03;;;7.90;99.90;;;;;;6124133;23;20192;-85
2022/03/31 04:41:15;;;;;;;22.48;16.52;;;8.00;99.90;;;;;;6124911;23;20464;-86
2022/03/31 04:43:42;;;;;;;22.30;15.45;;;8.00;99.90;;;;;;6113882;23;20191;-86
2022/03/31 04:46:09;;;;;;;23.27;15.40;;;7.90;99.90;;;;;;6121401;23;20184;-87
2022/03/31 04:48:36;;;;;;;22.65;16.15;;;8.00;99.90;;;;;;6112669;23;20421;-85
2022/03/31 04:51:03;;;;;;;23.77;15.93;;;7.90;99.90;;;;;;6113287;23;20715;-87
2022/03/31 04:53:35;;;;;;;23.15;18.33;;;7.90;99.90;;;;;;6106195;23;20480;-87
2022/03/31 04:56:02;;;;;;;20.07;14.30;;;7.80;99.90;;;;;;6105358;23;20204;-86
2022/03/31 04:58:30;;;;;;;20.75;14.00;;;7.80;99.90;;;;;;6105450;23;20417;-86
2022/03/31 05:00:58;;;;;;;22.38;17.42;;;7.80;99.90;;;;;;6108080;23;20192;-86
2022/03/31 05:03:25;;;;;;;25.27;15.15;;;7.70;99.90;;;;;;6114488;23;20173;-86
2022/03/31 05:05:57;;;;;;;24.90;17.25;;;7.70;99.90;;;;;;6107989;23;20196;-85
2022/03/31 05:08:24;;;;;;;23.98;17.30;;;7.70;99.90;;;;;;6103631;23;20181;-85
2022/03/31 05:10:54;;;;;;;24.92;17.80;;;7.70;99.90;;;;;;6102912;23;20204;-86
2022/03/31 05:13:21;;;;;;;20.23;14.65;;;7.70;99.90;;;;;;6105906;23;20204;-86
2022/03/31 05:15:50;;;;;;;21.17;15.18;;;7.70;99.90;;;;;;6105047;23;20310;-86
2022/03/31 05:21:59;;;;;;;22.85;16.40;;;7.70;99.90;;;;;;6103680;23;20188;-85
2022/03/31 05:24:57;;;;;;;21.17;14.85;;;7.60;99.90;;;;;;6103510;23;20157;-86
2022/03/31 05:27:33;;;;;;;23.60;14.67;;;7.60;99.90;;;;;;6103139;23;20612;-87
2022/03/31 05:36:56;;;;;;;22.35;15.65;;;7.60;99.90;;;;;;5867687;23;20180;-87
2022/03/31 05:46:51;;;;;;;18.50;12.95;;;7.60;99.90;;;;;;5967292;24;20392;-87
2022/03/31 05:50:03;;;;;;;22.17;15.60;;;7.60;99.90;;;;;;6047077;23;20308;-89
2022/03/31 05:53:21;;;;;;;19.23;14.13;;;7.60;99.90;;;;;;5907630;24;20193;-88
2022/03/31 05:55:54;;;;;;;27.75;14.55;;;7.70;99.90;;;;;;5935908;23;20424;-87
2022/03/31 05:58:27;;;;;;;19.25;14.57;;;7.60;99.90;;;;;;6016127;23;20183;-87
2022/03/31 06:01:03;;;;;;;22.52;15.82;;;7.80;99.90;;;;;;6018116;23;20199;-87
2022/03/31 06:03:31;;;;;;;21.63;16.30;;;7.80;99.90;;;;;;6054745;23;20220;-87
2022/03/31 06:06:00;;;;;;;25.10;17.30;;;7.90;99.90;;;;;;6107474;23;20420;-87
2022/03/31 06:08:30;;;;;;;22.80;14.68;;;7.80;99.90;;;;;;6106282;23;20425;-87
2022/03/31 06:10:59;;;;;;;24.17;17.00;;;7.80;99.90;;;;;;6106129;23;20218;-87
2022/03/31 06:13:26;;;;;;;23.63;13.88;;;7.90;99.90;;;;;;6113970;23;20185;-87
2022/03/31 06:16:10;;;;;;;17.55;12.00;;;7.70;99.90;;;;;;6107231;23;20191;-86
2022/03/31 06:18:46;;;;;;;21.30;14.25;;;7.60;99.90;;;;;;6106669;23;20177;-87
2022/03/31 06:21:20;;;;;;;19.60;14.10;;;7.60;99.90;;;;;;6106420;23;20251;-86
2022/03/31 06:23:47;;;;;;;22.85;15.15;;;7.70;99.90;;;;;;6105767;23;20168;-86
2022/03/31 06:26:16;;;;;;;22.70;15.70;;;7.70;99.90;;;;;;6113952;23;20205;-85
2022/03/31 06:28:43;;;;;;;25.83;14.00;;;7.60;99.90;;;;;;6120400;23;20177;-86
2022/03/31 06:31:10;;;;;;;24.35;15.82;;;7.60;99.90;;;;;;6110258;23;20448;-87
2022/03/31 06:33:37;;;;;;;21.23;14.43;;;7.60;99.90;;;;;;6107078;23;20585;-87
2022/03/31 06:36:07;;;;;;;22.70;15.07;;;7.60;99.90;;;;;;6111006;23;20209;-84
2022/03/31 06:38:38;;;;;;;22.98;16.35;;;7.60;99.90;;;;;;6111469;23;20231;-86
2022/03/31 06:41:17;;;;;;;24.50;15.70;;;7.50;99.90;;;;;;6114916;23;20229;-85
2022/03/31 06:43:53;;;;;;;24.38;16.92;;;7.50;99.90;;;;;;6113871;23;20529;-85
2022/03/31 06:46:39;;;;;;;22.67;15.73;;;7.50;99.90;;;;;;6114160;23;20177;-87
2022/03/31 06:49:08;;;;;;;20.50;15.25;;;7.60;99.90;;;;;;6116554;23;20201;-87
2022/03/31 06:51:44;;;;;;;27.80;17.55;;;7.30;99.90;;;;;;6107861;23;20228;-86
2022/03/31 06:54:19;;;;;;;22.48;17.10;;;7.70;99.90;;;;;;6122038;23;20207;-85
2022/03/31 06:57:00;;;;;;;24.33;18.00;;;7.70;99.90;;;;;;6112459;23;20180;-87
2022/03/31 06:59:56;;;;;;;21.48;14.43;;;7.60;99.90;;;;;;6110284;23;20425;-85
2022/03/31 07:02:38;;;;;;;23.20;15.85;;;7.90;99.90;;;;;;6106227;23;20608;-86
2022/03/31 07:05:07;;;;;;;24.95;17.58;;;7.80;99.90;;;;;;6105386;23;20180;-85
2022/03/31 07:07:48;;;;;;;25.17;18.40;;;7.70;99.90;;;;;;6106216;23;20177;-86
2022/03/31 07:10:21;;;;;;;25.58;17.20;;;7.80;99.90;;;;;;6104073;23;20540;-87
2022/03/31 07:12:49;;;;;;;22.17;16.20;;;7.80;99.90;;;;;;6106359;23;20169;-86
2022/03/31 07:15:16;;;;;;;28.77;18.60;;;7.90;99.90;;;;;;6104259;23;20519;-85
2022/03/31 07:17:45;;;;;;;26.77;18.30;;;7.90;99.90;;;;;;6104055;23;20181;-85
2022/03/31 07:20:12;;;;;;;27.07;16.80;;;8.10;99.90;;;;;;6103826;23;20471;-85
2022/03/31 07:22:45;;;;;;;26.60;19.20;;;8.30;99.90;;;;;;6103575;23;20500;-85
2022/03/31 07:25:13;;;;;;;30.43;17.63;;;8.20;99.90;;;;;;6102625;23;20401;-86
2022/03/31 07:27:42;;;;;;;23.67;16.13;;;8.20;99.90;;;;;;6104505;23;20427;-85
2022/03/31 07:30:13;;;;;;;24.13;17.10;;;8.50;99.90;;;;;;6111575;23;20304;-85
2022/03/31 07:32:48;;;;;;;21.30;15.67;;;8.50;99.90;;;;;;6113346;23;20408;-85
2022/03/31 07:35:16;;;;;;;24.47;16.80;;;8.40;99.90;;;;;;6123842;23;20443;-85
2022/03/31 07:37:55;;;;;;;25.43;15.80;;;8.30;99.90;;;;;;6123579;23;20420;-86
2022/03/31 07:40:27;;;;;;;23.90;16.40;;;8.40;99.90;;;;;;6120324;23;20425;-86
2022/03/31 07:43:34;;;;;;;;;;;;;;;;;;;;;
2022/03/31 07:49:53;;;;;;;25.93;18.60;;;8.40;99.90;;;;;;6007940;23;20443;-86
2022/03/31 07:52:21;;;;;;;24.60;18.27;;;8.40;99.90;;;;;;6112171;23;20453;-86
2022/03/31 07:54:49;;;;;;;27.55;16.85;;;8.40;99.90;;;;;;6111869;23;20767;-86
2022/03/31 07:57:16;;;;;;;26.10;17.93;;;8.40;99.90;;;;;;6107981;23;20168;-86
2022/03/31 08:02:21;;;;;;;22.87;16.10;;;8.50;99.90;;;;;;6110879;23;20482;-86
2022/03/31 08:04:53;;;;;;;24.70;16.90;;;8.60;99.90;;;;;;6107813;23;20380;-87
2022/03/31 08:07:30;;;;;;;23.83;17.70;;;8.60;99.90;;;;;;6108406;23;20503;-88
2022/03/31 08:10:08;;;;;;;25.27;17.87;;;8.40;99.90;;;;;;6107877;23;20409;-86
2022/03/31 08:12:41;;;;;;;27.77;17.50;;;8.30;99.90;;;;;;6103646;23;20433;-87
2022/03/31 08:15:19;;;;;;;24.00;16.80;;;8.20;99.90;;;;;;6106758;23;20384;-87
2022/03/31 08:17:50;;;;;;;23.57;16.27;;;8.40;99.90;;;;;;6110869;23;20459;-87
2022/03/31 08:20:18;;;;;;;26.50;17.40;;;8.60;99.90;;;;;;6111492;23;20435;-88
2022/03/31 08:22:46;;;;;;;23.60;17.50;;;8.50;99.90;;;;;;6110554;23;20448;-86
2022/03/31 08:25:17;;;;;;;26.27;17.53;;;8.40;99.90;;;;;;6112494;23;20428;-87
2022/03/31 08:27:45;;;;;;;21.80;16.77;;;8.50;99.90;;;;;;6109691;23;20516;-85
2022/03/31 08:30:18;;;;;;;29.10;17.27;;;8.60;99.90;;;;;;6109766;23;20464;-86
2022/03/31 08:35:53;;;;;;;24.80;19.57;;;8.80;99.90;;;;;;6109356;23;20412;-87
2022/03/31 08:42:16;;;;;;;29.73;19.00;;;8.70;99.90;;;;;;5978000;24;20448;-87
2022/03/31 08:44:43;;;;;;;28.17;19.70;;;8.90;99.90;;;;;;5996414;23;20519;-86
2022/03/31 08:47:11;;;;;;;24.00;17.07;;;8.80;99.90;;;;;;6120275;23;20421;-88
2022/03/31 08:49:44;;;;;;;23.73;16.53;;;8.80;99.90;;;;;;6116567;23;20748;-88
2022/03/31 08:52:12;;;;;;;21.87;14.87;;;9.00;99.90;;;;;;6112957;23;20429;-87
2022/03/31 08:54:40;;;;;;;23.23;15.60;;;9.20;99.90;;;;;;6113671;23;20440;-86
2022/03/31 08:57:08;;;;;;;21.33;16.40;;;9.20;99.90;;;;;;6121090;23;20480;-84
2022/03/31 09:00:07;;;;;;;18.10;11.70;;;9.20;99.90;;;;;;6110504;23;20445;-85
2022/03/31 09:02:36;;;;;;;25.77;17.50;;;9.10;99.90;;;;;;6112560;23;20454;-87
2022/03/31 09:05:42;;;;;;;25.10;18.50;;;9.10;99.90;;;;;;6113697;23;20421;-85
2022/03/31 09:08:12;;;;;;;24.87;15.77;;;9.20;99.90;;;;;;6114176;23;20421;-85
2022/03/31 09:10:49;;;;;;;24.20;15.10;;;9.20;99.90;;;;;;6115166;23;20440;-85
2022/03/31 09:13:38;;;;;;;23.95;15.57;;;9.10;99.90;;;;;;6113012;23;20372;-85
2022/03/31 09:16:39;;;;;;;24.70;16.50;;;9.10;99.90;;;;;;6114769;23;20173;-86
2022/03/31 09:19:11;;;;;;;22.53;15.57;;;9.20;99.90;;;;;;6115695;23;20351;-87
2022/03/31 09:21:53;;;;;;;23.90;16.93;;;9.20;99.90;;;;;;6113718;23;20444;-86
2022/03/31 09:24:28;;;;;;;24.80;16.10;;;9.40;99.90;;;;;;6116772;23;20433;-87
2022/03/31 09:27:04;;;;;;;24.03;17.90;;;9.30;99.90;;;;;;6115697;23;20408;-87
2022/03/31 11:26:14;;;;;;;27.43;19.90;;;11.10;99.90;;;;;;5898123;23;20740;-87
2022/03/31 11:36:17;;;;;;;24.17;14.90;;;11.10;99.90;;;;;;5790331;24;20445;-88
2022/03/31 12:49:57;;;;;;;28.40;16.50;;;11.20;99.90;;;;;;5983905;23;20409;-88
2022/03/31 12:56:22;;;;;;;;;;;;;;;;;;;;;
2022/03/31 12:59:56;;;;;;;26.33;17.03;;;11.50;99.90;;;;;;5974591;24;20437;-89
2022/03/31 13:03:08;;;;;;;25.00;16.27;;;11.40;99.90;;;;;;5999466;24;20960;-87
2022/03/31 13:12:38;;;;;;;31.50;17.40;;;11.20;99.90;;;;;;5990566;24;20418;-88
2022/03/31 13:19:16;;;;;;;41.73;18.20;;;11.10;99.90;;;;;;5909158;24;20414;-88
2022/03/31 13:22:47;;;;;;;26.23;17.13;;;11.20;99.90;;;;;;5876916;24;20434;-88
2022/03/31 13:47:03;;;;;;;23.40;14.07;;;11.50;99.90;;;;;;5924868;23;20467;-87
2022/03/31 13:49:45;;;;;;;20.47;15.00;;;11.50;99.90;;;;;;6085829;23;20451;-87
2022/03/31 13:52:19;;;;;;;33.10;18.47;;;11.50;99.90;;;;;;6114134;23;20402;-89
2022/03/31 13:54:59;;;;;;;28.70;18.43;;;11.50;99.90;;;;;;6119797;23;20383;-89
2022/03/31 14:03:27;;;;;;;26.13;18.27;;;11.40;99.90;;;;;;6059119;23;20539;-87
2022/03/31 14:10:04;;;;;;;27.93;16.70;;;10.90;99.90;;;;;;6119304;23;20459;-89
2022/03/31 14:22:52;;;;;;;30.27;19.60;;;10.70;99.90;;;;;;6028748;23;20417;-87
2022/03/31 14:25:45;;;;;;;24.30;14.00;;;10.80;99.90;;;;;;6017726;23;20404;-87
2022/03/31 14:28:13;;;;;;;24.20;15.40;;;10.60;99.90;;;;;;6104693;23;20432;-86
2022/03/31 14:30:46;;;;;;;27.37;16.00;;;10.40;99.90;;;;;;6103327;23;20889;-87
2022/03/31 14:33:18;;;;;;;26.60;17.70;;;10.20;99.90;;;;;;6105439;23;20393;-87
2022/03/31 14:36:02;;;;;;;30.50;20.27;;;10.10;99.90;;;;;;6106274;23;20987;-87
2022/03/31 14:39:20;;;;;;;27.60;18.70;;;10.20;99.90;;;;;;6108731;23;20401;-87
2022/03/31 14:42:31;;;;;;;29.07;19.70;;;10.10;99.90;;;;;;6105831;23;20413;-87
2022/03/31 14:45:27;;;;;;;30.97;19.73;;;10.20;99.90;;;;;;6105337;23;20496;-88
2022/03/31 14:49:13;;;;;;;32.37;20.30;;;10.20;99.90;;;;;;6064238;23;20975;-87
2022/03/31 15:29:43;;;;;;;27.17;16.50;;;10.00;99.90;;;;;;6008166;23;20964;-87
2022/03/31 15:33:20;;;;;;;27.97;18.00;;;10.00;99.90;;;;;;5914759;24;20490;-87
2022/03/31 15:39:15;;;;;;;31.00;19.13;;;10.10;99.90;;;;;;6077333;23;20404;-86
2022/03/31 15:42:01;;;;;;;30.33;19.60;;;10.20;99.90;;;;;;6077989;23;20493;-88
2022/03/31 15:44:37;;;;;;;30.23;18.97;;;10.10;99.90;;;;;;6080856;23;20440;-88
2022/03/31 15:47:07;;;;;;;30.37;18.90;;;10.10;99.90;;;;;;6083579;23;20445;-88
2022/03/31 15:49:35;;;;;;;27.20;19.87;;;10.30;99.90;;;;;;6082011;23;20712;-87
2022/03/31 15:52:16;;;;;;;31.40;19.80;;;10.20;99.90;;;;;;6085332;23;20422;-88
2022/03/31 15:54:52;;;;;;;31.37;19.97;;;10.30;99.90;;;;;;6079417;23;20741;-87
2022/03/31 15:57:42;;;;;;;30.50;19.43;;;10.40;99.90;;;;;;6079522;23;20448;-87
2022/03/31 16:00:19;;;;;;;27.80;18.80;;;10.30;99.90;;;;;;6078497;23;20891;-87
2022/03/31 16:03:07;;;;;;;;;;;;;;;;;;;;;
2022/03/31 16:18:25;;;;;;;32.47;19.93;;;10.40;99.90;;;;;;5955899;23;21096;-87
2022/03/31 16:21:04;;;;;;;28.50;16.60;;;10.30;99.90;;;;;;6078493;23;20748;-86
2022/03/31 16:23:49;;;;;;;29.83;19.30;;;10.20;99.90;;;;;;6078038;23;20448;-88
2022/03/31 16:26:29;;;;;;;27.70;19.27;;;10.20;99.90;;;;;;6077551;23;20405;-87
2022/03/31 16:29:02;;;;;;;31.73;21.03;;;10.20;99.90;;;;;;6081809;23;20403;-87
2022/03/31 16:31:53;;;;;;;28.33;16.90;;;10.20;99.90;;;;;;6082113;23;20425;-87
2022/03/31 16:34:27;;;;;;;33.20;21.53;;;10.20;99.90;;;;;;6092745;23;20484;-86
2022/03/31 16:50:46;;;;;;;28.40;19.67;;;9.80;99.90;;;;;;5840895;24;20437;-86
2022/03/31 16:53:57;;;;;;;27.10;17.37;;;10.00;99.90;;;;;;5856320;24;20453;-87
2022/03/31 18:14:30;;;;;;;28.93;19.77;;;9.40;99.90;;;;;;5827783;24;20626;-88
2022/03/31 18:16:57;;;;;;;32.60;22.13;;;9.30;99.90;;;;;;5937133;24;20441;-86
2022/03/31 18:19:25;;;;;;;30.70;21.83;;;9.30;99.90;;;;;;6030131;23;20418;-87
2022/03/31 18:21:55;;;;;;;35.20;22.77;;;9.30;99.90;;;;;;6055967;23;20483;-87
2022/03/31 18:24:24;;;;;;;34.50;23.90;;;9.30;99.90;;;;;;6049920;23;20829;-86
2022/03/31 18:26:52;;;;;;;34.27;23.70;;;9.20;99.90;;;;;;6049539;23;20400;-86
2022/03/31 18:34:46;;;;;;;31.15;20.20;;;9.10;99.90;;;;;;6047396;23;20402;-87
2022/03/31 18:37:13;;;;;;;34.67;23.10;;;8.90;99.90;;;;;;6047048;23;20198;-87
2022/03/31 18:39:41;;;;;;;34.70;23.02;;;8.80;99.90;;;;;;6046654;23;20505;-88
2022/03/31 18:42:08;;;;;;;28.60;19.95;;;8.80;99.90;;;;;;6048208;23;20182;-87
2022/03/31 18:44:35;;;;;;;29.67;20.10;;;8.90;99.90;;;;;;6048333;23;20638;-86
2022/03/31 18:47:04;;;;;;;33.80;21.47;;;8.80;99.90;;;;;;6048727;23;20423;-86
2022/03/31 18:49:31;;;;;;;31.87;20.67;;;8.80;99.90;;;;;;6048633;23;20435;-86
2022/03/31 18:51:59;;;;;;;33.35;22.75;;;8.80;99.90;;;;;;6048444;23;20801;-86
2022/03/31 18:54:26;;;;;;;34.63;21.73;;;8.80;99.90;;;;;;6048442;23;20265;-85
2022/03/31 18:56:55;;;;;;;30.95;20.55;;;8.80;99.90;;;;;;6060693;23;20418;-86
2022/03/31 18:59:22;;;;;;;35.15;21.20;;;8.80;99.90;;;;;;6054031;23;20264;-87
2022/03/31 19:01:50;;;;;;;33.97;21.37;;;8.70;99.90;;;;;;6057862;23;20208;-87
2022/03/31 19:04:20;;;;;;;29.87;20.63;;;8.70;99.90;;;;;;6050559;23;20446;-87
2022/03/31 19:07:00;;;;;;;31.07;20.00;;;8.70;99.90;;;;;;6050687;23;20455;-87
2022/03/31 19:09:29;;;;;;;31.10;21.37;;;8.80;99.90;;;;;;6050750;23;20482;-86
2022/03/31 19:11:57;;;;;;;31.60;20.43;;;8.80;99.90;;;;;;6048365;23;20422;-88
2022/03/31 19:14:24;;;;;;;31.55;21.02;;;8.70;99.90;;;;;;6046729;23;20418;-87
2022/03/31 19:16:52;;;;;;;36.72;23.95;;;8.60;99.90;;;;;;6059793;23;20280;-86
2022/03/31 19:19:21;;;;;;;33.63;20.92;;;8.50;99.90;;;;;;6078201;23;20185;-86
2022/03/31 19:21:48;;;;;;;29.35;19.15;;;8.50;99.90;;;;;;6093012;23;20178;-87
2022/03/31 19:24:16;;;;;;;30.00;20.50;;;8.60;99.90;;;;;;6081888;23;20202;-86
2022/03/31 19:26:45;;;;;;;30.52;19.20;;;8.70;99.90;;;;;;6076909;23;20185;-88
2022/03/31 19:29:13;;;;;;;31.33;19.33;;;8.70;99.90;;;;;;6088607;23;20180;-88
2022/03/31 19:31:42;;;;;;;29.45;19.98;;;8.70;99.90;;;;;;6076905;23;20221;-88
2022/03/31 19:34:10;;;;;;;25.90;18.73;;;8.70;99.90;;;;;;6075752;23;20201;-87
2022/03/31 19:36:39;;;;;;;25.08;18.00;;;8.70;99.90;;;;;;6078542;23;20185;-89
2022/03/31 19:39:06;;;;;;;27.30;19.40;;;8.70;99.90;;;;;;6079116;23;20185;-87
2022/03/31 19:41:35;;;;;;;29.35;20.20;;;8.70;99.90;;;;;;6093336;23;20413;-86
2022/03/31 19:44:02;;;;;;;26.85;17.63;;;8.80;99.90;;;;;;6093489;23;20217;-87
2022/03/31 19:46:30;;;;;;;24.67;16.57;;;8.70;99.90;;;;;;6081018;23;20201;-87
2022/03/31 19:48:57;;;;;;;45.80;31.63;;;8.70;99.90;;;;;;6081264;23;20461;-88
2022/03/31 19:51:25;;;;;;;27.05;18.65;;;8.70;99.90;;;;;;6093487;23;20418;-88
2022/03/31 19:53:54;;;;;;;30.27;20.77;;;8.60;99.90;;;;;;6084630;23;20177;-87
2022/03/31 19:56:21;;;;;;;24.95;18.02;;;8.60;99.90;;;;;;6079081;23;20630;-88
2022/03/31 19:58:49;;;;;;;24.13;16.58;;;8.50;99.90;;;;;;6077492;23;20201;-88
2022/03/31 20:01:18;;;;;;;23.30;17.05;;;8.60;99.90;;;;;;6082741;23;20185;-89
2022/03/31 20:03:45;;;;;;;26.80;17.48;;;8.50;99.90;;;;;;6080484;23;20245;-89
2022/03/31 20:06:16;;;;;;;28.15;18.85;;;8.60;99.90;;;;;;6078839;23;20185;-89
2022/03/31 20:08:44;;;;;;;24.15;15.40;;;8.60;99.90;;;;;;6077540;23;20202;-87
2022/03/31 20:11:13;;;;;;;26.42;16.30;;;8.70;99.90;;;;;;6078262;23;20186;-87
2022/03/31 20:13:40;;;;;;;24.13;16.30;;;8.70;99.90;;;;;;6078684;23;20185;-86
2022/03/31 20:16:11;;;;;;;23.05;16.20;;;8.60;99.90;;;;;;6078202;23;20268;-87
2022/03/31 20:18:41;;;;;;;22.45;16.48;;;8.60;99.90;;;;;;6079034;23;20547;-88
2022/03/31 20:21:09;;;;;;;22.88;14.55;;;8.40;99.90;;;;;;6081678;23;20166;-89
2022/03/31 20:23:36;;;;;;;24.60;16.53;;;8.50;99.90;;;;;;6082050;23;20197;-87
2022/03/31 20:26:03;;;;;;;26.45;18.83;;;8.30;99.90;;;;;;6080728;23;20816;-88
2022/03/31 20:28:36;;;;;;;23.97;16.20;;;8.30;99.90;;;;;;6083653;23;20533;-88
2022/03/31 20:31:04;;;;;;;23.70;17.15;;;8.40;99.90;;;;;;6083031;23;20398;-88
2022/03/31 20:33:31;;;;;;;26.85;16.80;;;8.30;99.90;;;;;;6079799;23;20193;-87
2022/03/31 20:35:58;;;;;;;27.30;18.15;;;8.40;99.90;;;;;;6079836;23;20181;-89
2022/03/31 20:38:25;;;;;;;21.92;15.57;;;8.40;99.90;;;;;;6080330;23;20662;-88
2022/03/31 20:40:53;;;;;;;22.33;15.93;;;8.30;99.90;;;;;;6081599;23;20186;-87
2022/03/31 20:43:20;;;;;;;27.85;17.35;;;8.40;99.90;;;;;;6092893;23;20173;-87
2022/03/31 20:45:48;;;;;;;24.57;15.70;;;8.40;99.90;;;;;;6091574;23;20205;-88
2022/03/31 20:48:16;;;;;;;25.08;16.35;;;8.30;99.90;;;;;;6082222;23;20434;-88
2022/03/31 20:50:43;;;;;;;24.83;15.40;;;8.10;99.90;;;;;;6081841;23;20244;-88
2022/03/31 20:53:11;;;;;;;21.45;14.05;;;8.20;99.90;;;;;;6080631;23;20413;-88
2022/03/31 20:55:40;;;;;;;28.52;15.35;;;8.20;99.90;;;;;;6080972;23;20233;-87
2022/03/31 20:58:08;;;;;;;22.52;15.00;;;8.10;99.90;;;;;;6089448;23;20248;-86
2022/03/31 21:00:35;;;;;;;26.17;17.98;;;8.10;99.90;;;;;;6083027;23;20216;-87
2022/03/31 21:03:06;;;;;;;25.52;16.20;;;8.00;99.90;;;;;;6080504;23;20260;-86
2022/03/31 21:05:33;;;;;;;24.27;16.23;;;7.90;99.90;;;;;;6080118;23;20193;-88
2022/03/31 21:08:01;;;;;;;25.52;16.33;;;7.90;99.90;;;;;;6083359;23;20204;-88
2022/03/31 21:10:29;;;;;;;27.58;12.77;;;7.90;99.90;;;;;;6091007;23;20188;-87
2022/03/31 21:12:59;;;;;;;26.95;17.02;;;7.80;99.90;;;;;;6087207;23;20177;-88
2022/03/31 21:15:26;;;;;;;25.60;16.92;;;7.80;99.90;;;;;;6084168;23;20474;-87
2022/03/31 21:17:58;;;;;;;25.52;15.25;;;7.80;99.90;;;;;;6079787;23;20597;-88
2022/03/31 21:20:28;;;;;;;24.50;15.77;;;7.70;99.90;;;;;;6083577;23;20186;-87
2022/03/31 21:22:56;;;;;;;27.52;15.63;;;7.70;99.90;;;;;;6081965;23;20184;-87
2022/03/31 21:25:23;;;;;;;28.58;16.73;;;7.70;99.90;;;;;;6080596;23;20236;-88
2022/03/31 21:27:52;;;;;;;23.92;16.83;;;7.70;99.90;;;;;;6079960;23;20216;-89
2022/03/31 21:30:21;;;;;;;25.15;16.77;;;7.60;99.90;;;;;;6081636;23;20672;-89
2022/03/31 21:32:48;;;;;;;27.88;16.80;;;7.60;99.90;;;;;;6083960;23;20181;-89
2022/03/31 21:35:17;;;;;;;23.05;15.88;;;7.50;99.90;;;;;;6085510;23;20181;-88
2022/03/31 22:40:27;;;;;;;16.05;11.25;;;7.50;99.90;;;;;;5856908;24;20283;-88
2022/03/31 22:43:26;;;;;;;17.73;12.13;;;7.40;99.90;;;;;;6030584;23;20236;-88
2022/03/31 22:49:27;;;;;;;19.30;13.32;;;7.50;99.90;;;;;;6087968;23;20221;-87
2022/03/31 22:53:03;;;;;;;;;;;;;;;;;;;;;
2022/03/31 23:10:02;;;;;;;21.98;14.10;;;7.60;99.90;;;;;;5894823;24;20273;-87
2022/03/31 23:12:53;;;;;;;18.83;14.18;;;7.30;99.90;;;;;;6042758;23;20181;-89
2022/03/31 23:15:58;;;;;;;19.88;12.93;;;7.30;99.90;;;;;;6078285;23;20534;-87
2022/03/31 23:18:59;;;;;;;20.48;13.00;;;7.30;99.90;;;;;;6038413;23;20205;-88
2022/03/31 23:29:06;;;;;;;17.90;12.15;;;7.30;99.90;;;;;;5986405;23;20199;-87
2022/03/31 23:32:38;;;;;;;17.13;11.13;;;7.20;99.90;;;;;;6074476;23;20522;-87
2022/03/31 23:35:39;;;;;;;17.33;10.65;;;7.10;99.90;;;;;;6077041;23;20257;-89
2022/03/31 23:42:08;;;;;;;17.02;10.70;;;7.20;99.90;;;;;;6071544;23;20182;-89
2022/03/31 23:45:54;;;;;;;15.00;10.07;;;7.10;99.90;;;;;;6079504;23;20184;-88
2022/03/31 23:56:12;;;;;;;17.50;10.45;;;7.10;99.90;;;;;;5945374;23;20617;-87
